createdAt,value
2023-02-26T00:03:33.559Z,97623.13
2023-02-26T00:08:36.530Z,97621.38
2023-02-26T00:13:46.094Z,97634.16
2023-02-26T00:18:48.286Z,97630.56
2023-02-26T00:23:50.573Z,97637.53
2023-02-26T00:28:56.239Z,97642.53
2023-02-26T00:33:58.880Z,97652.84
2023-02-26T00:39:13.369Z,97653.31
2023-02-26T00:44:15.545Z,97656.81
2023-02-26T00:49:54.586Z,97655.19
2023-02-26T00:54:56.494Z,97660.63
2023-02-26T00:59:58.380Z,97653.91
2023-02-26T01:05:01.322Z,97660.75
2023-02-26T01:10:04.146Z,97663.44
2023-02-26T01:15:07.719Z,97668.66
2023-02-26T01:20:31.353Z,97669.59
2023-02-26T01:25:43.766Z,97662.16
2023-02-26T01:30:47.018Z,97678.28
2023-02-26T01:35:54.870Z,97670.06
2023-02-26T01:41:12.982Z,97671.56
2023-02-26T01:46:49.235Z,97678.53
2023-02-26T01:51:55.920Z,97691.66
2023-02-26T01:57:08.707Z,97687.25
2023-02-26T02:02:16.444Z,97704.06
2023-02-26T02:07:19.123Z,97706.50
2023-02-26T02:12:41.336Z,97708.25
2023-02-26T02:17:51.956Z,97716.72
2023-02-26T02:23:02.629Z,97717.66
2023-02-26T02:28:36.618Z,97730.88
2023-02-26T02:33:51.610Z,97738.66
2023-02-26T02:38:59.791Z,97749.69
2023-02-26T02:44:06.819Z,97758.06
2023-02-26T02:49:38.879Z,97768.28
2023-02-26T02:54:49.277Z,97776.06
2023-02-26T03:00:13.744Z,97782.69
2023-02-26T03:05:17.754Z,97791.03
2023-02-26T03:10:20.326Z,97789.88
2023-02-26T03:15:35.502Z,97805.22
2023-02-26T03:20:49.928Z,97811.94
2023-02-26T03:26:19.203Z,97812.16
2023-02-26T03:31:54.073Z,97830.06
2023-02-26T03:37:13.557Z,97828.31
2023-02-26T03:42:43.354Z,97848.53
2023-02-26T03:47:54.132Z,97852.59
2023-02-26T03:53:01.157Z,97865.38
2023-02-26T03:58:14.417Z,97866.19
2023-02-26T04:03:46.519Z,97872.22
2023-02-26T04:08:48.880Z,97883.25
2023-02-26T04:13:50.862Z,97884.06
2023-02-26T04:18:53.975Z,97888.38
2023-02-26T04:23:55.959Z,97898.69
2023-02-26T04:28:57.828Z,97908.09
2023-02-26T04:34:00.672Z,97915.75
2023-02-26T04:39:03.178Z,97922.72
2023-02-26T04:44:06.939Z,97931.53
2023-02-26T04:49:11.046Z,97946.16
2023-02-26T04:54:19.226Z,97941.97
2023-02-26T04:59:21.202Z,97951.25
2023-02-26T05:04:23.228Z,97951.97
2023-02-26T05:09:32.953Z,97968.09
2023-02-26T05:14:35.407Z,97973.09
2023-02-26T05:19:37.263Z,97978.94
2023-02-26T05:24:40.303Z,97985.66
2023-02-26T05:29:45.180Z,97984.97
2023-02-26T05:34:49.176Z,97991.81
2023-02-26T05:39:51.063Z,98007.94
2023-02-26T05:44:52.952Z,98011.44
2023-02-26T05:49:54.709Z,98024.19
2023-02-26T05:54:56.453Z,98028.97
2023-02-26T05:59:58.229Z,98036.44
2023-02-26T06:05:00.116Z,98044.91
2023-02-26T06:10:01.894Z,98047.56
2023-02-26T06:15:05.261Z,98053.50
2023-02-26T06:20:07.808Z,98062.09
2023-02-26T06:25:09.990Z,98066.59
2023-02-26T06:30:12.294Z,98086.53
2023-02-26T06:35:14.885Z,98095.03
2023-02-26T06:40:16.845Z,98108.50
2023-02-26T06:45:18.747Z,98109.94
2023-02-26T06:50:20.557Z,98123.41
2023-02-26T06:55:26.955Z,98128.53
2023-02-26T07:00:28.914Z,98130.97
2023-02-26T07:05:30.959Z,98148.75
2023-02-26T07:10:33.926Z,98150.50
2023-02-26T07:15:35.777Z,98155.50
2023-02-26T07:20:37.865Z,98175.31
2023-02-26T07:25:39.693Z,98170.69
2023-02-26T07:30:43.015Z,98192.06
2023-02-26T07:35:45.098Z,98188.59
2023-02-26T07:40:48.001Z,98197.56
2023-02-26T07:45:52.111Z,98204.91
2023-02-26T07:50:55.036Z,98208.69
2023-02-26T07:55:57.076Z,98205.91
2023-02-26T08:00:59.008Z,98214.41
2023-02-26T08:06:03.355Z,98222.69
2023-02-26T08:11:05.497Z,98230.56
2023-02-26T08:16:07.447Z,98238.00
2023-02-26T08:21:09.414Z,98250.69
2023-02-26T08:26:13.703Z,98253.34
2023-02-26T08:31:16.419Z,98262.56
2023-02-26T08:36:18.309Z,98270.84
2023-02-26T08:41:20.194Z,98279.72
2023-02-26T08:46:22.293Z,98283.78
2023-02-26T08:51:24.580Z,98292.03
2023-02-26T08:56:27.285Z,98294.22
2023-02-26T09:01:29.941Z,98307.28
2023-02-26T09:06:32.218Z,98314.97
2023-02-26T09:11:34.921Z,98317.75
2023-02-26T09:16:37.190Z,98326.34
2023-02-26T09:21:39.509Z,98331.47
2023-02-26T09:26:41.328Z,98341.28
2023-02-26T09:31:43.344Z,98352.22
2023-02-26T09:36:46.906Z,98359.38
2023-02-26T09:41:54.703Z,98355.66
2023-02-26T09:47:14.745Z,98366.81
2023-02-26T09:52:24.565Z,98381.16
2023-02-26T09:57:43.299Z,98386.44
2023-02-26T10:03:06.350Z,98395.94
2023-02-26T10:08:19.996Z,98398.16
2023-02-26T10:13:56.589Z,98406.69
2023-02-26T10:19:05.725Z,98422.66
2023-02-26T10:24:25.856Z,98431.16
2023-02-26T10:29:33.339Z,98437.47
2023-02-26T10:34:45.071Z,98438.69
2023-02-26T10:40:16.186Z,98455.31
2023-02-26T10:45:51.135Z,98458.00
2023-02-26T10:50:58.440Z,98458.63
2023-02-26T10:56:04.740Z,98469.34
2023-02-26T11:01:16.262Z,98470.78
2023-02-26T11:06:24.412Z,98472.22
2023-02-26T11:11:55.639Z,98467.91
2023-02-26T11:17:01.339Z,98465.31
2023-02-26T11:22:05.464Z,98461.50
2023-02-26T11:27:14.322Z,98467.44
2023-02-26T11:32:20.253Z,98480.75
2023-02-26T11:37:39.968Z,98478.50
2023-02-26T11:43:05.221Z,98487.63
2023-02-26T11:48:11.933Z,98485.25
2023-02-26T11:53:32.091Z,98490.16
2023-02-26T11:58:37.998Z,98484.56
2023-02-26T12:03:46.327Z,98485.75
2023-02-26T12:08:48.859Z,98486.38
2023-02-26T12:13:50.646Z,98497.03
2023-02-26T12:18:56.711Z,98490.47
2023-02-26T12:24:29.374Z,98500.69
2023-02-26T12:29:31.124Z,98505.84
2023-02-26T12:35:12.547Z,98510.44
2023-02-26T12:40:31.124Z,98513.94
2023-02-26T12:45:54.770Z,98512.56
2023-02-26T12:51:20.874Z,98507.31
2023-02-26T12:56:46.951Z,98524.78
2023-02-26T13:02:27.628Z,98523.69
2023-02-26T13:07:59.639Z,98530.50
2023-02-26T13:13:32.044Z,98537.31
2023-02-26T13:18:52.213Z,98545.22
2023-02-26T13:23:56.712Z,98545.34
2023-02-26T13:29:05.510Z,98542.66
2023-02-26T13:34:15.789Z,98544.09
2023-02-26T13:39:36.387Z,98544.16
2023-02-26T13:45:08.717Z,98549.22
2023-02-26T13:50:35.212Z,98556.59
2023-02-26T13:55:48.772Z,98563.78
2023-02-26T14:01:05.687Z,98568.53
2023-02-26T14:06:09.775Z,98561.59
2023-02-26T14:11:17.590Z,98566.28
2023-02-26T14:16:24.185Z,98567.34
2023-02-26T14:21:52.084Z,98584.22
2023-02-26T14:27:12.213Z,98577.59
2023-02-26T14:32:26.347Z,98570.66
2023-02-26T14:37:29.076Z,98562.56
2023-02-26T14:42:30.957Z,98571.72
2023-02-26T14:47:32.986Z,98578.19
2023-02-26T14:52:50.765Z,98581.78
2023-02-26T14:58:01.734Z,98581.75
2023-02-26T15:03:15.631Z,98596.34
2023-02-26T15:08:26.244Z,98592.72
2023-02-26T15:14:09.851Z,98592.59
2023-02-26T15:20:02.614Z,98610.38
2023-02-26T15:25:15.050Z,98627.47
2023-02-26T15:30:18.021Z,98635.34
2023-02-26T15:35:23.278Z,98646.84
2023-02-26T15:40:27.233Z,98635.38
2023-02-26T15:45:37.494Z,98627.94
2023-02-26T15:50:43.234Z,98629.91
2023-02-26T15:55:53.332Z,98633.69
2023-02-26T16:00:56.416Z,98634.63
2023-02-26T16:05:59.529Z,98631.34
2023-02-26T16:11:02.228Z,98636.75
2023-02-26T16:16:30.318Z,98643.09
2023-02-26T16:21:36.030Z,98652.59
2023-02-26T16:26:41.979Z,98657.81
2023-02-26T16:31:52.094Z,98667.03
2023-02-26T16:36:54.640Z,98670.13
2023-02-26T16:42:17.145Z,98682.53
2023-02-26T16:47:20.583Z,98686.63
2023-02-26T16:52:28.811Z,98693.41
2023-02-26T16:57:42.334Z,98704.44
2023-02-26T17:02:48.057Z,98714.78
2023-02-26T17:07:58.416Z,98729.22
2023-02-26T17:13:31.458Z,98737.72
2023-02-26T17:18:34.085Z,98741.09
2023-02-26T17:23:38.958Z,98741.00
2023-02-26T17:28:43.337Z,98745.22
2023-02-26T17:33:45.816Z,98755.44
2023-02-26T17:38:48.879Z,98755.56
2023-02-26T17:43:51.148Z,98761.78
2023-02-26T17:48:53.224Z,98784.91
2023-02-26T17:53:55.083Z,98798.00
2023-02-26T17:58:58.897Z,98797.56
2023-02-26T18:04:01.562Z,98802.88
2023-02-26T18:09:05.996Z,98800.31
2023-02-26T18:14:08.869Z,98802.88
2023-02-26T18:19:14.424Z,98814.84
2023-02-26T18:24:16.330Z,98829.09
2023-02-26T18:29:18.234Z,98827.25
2023-02-26T18:34:20.093Z,98829.72
2023-02-26T18:39:22.051Z,98833.19
2023-02-26T18:44:24.410Z,98830.09
2023-02-26T18:49:27.635Z,98837.34
2023-02-26T18:54:29.559Z,98849.69
2023-02-26T18:59:33.785Z,98850.78
2023-02-26T19:04:35.833Z,98868.03
2023-02-26T19:09:37.896Z,98873.44
2023-02-26T19:14:39.877Z,98879.56
2023-02-26T19:19:42.570Z,98884.75
2023-02-26T19:24:44.677Z,98888.22
2023-02-26T19:29:46.702Z,98888.31
2023-02-26T19:34:48.447Z,98899.47
2023-02-26T19:39:50.302Z,98898.66
2023-02-26T19:44:52.323Z,98910.63
2023-02-26T19:49:54.165Z,98912.34
2023-02-26T19:54:55.958Z,98921.84
2023-02-26T19:59:59.562Z,98927.88
2023-02-26T20:05:01.443Z,98941.41
2023-02-26T20:10:04.144Z,98939.84
2023-02-26T20:15:08.455Z,98953.44
2023-02-26T20:20:11.355Z,98957.00
2023-02-26T20:25:14.957Z,98963.13
2023-02-26T20:30:20.412Z,98966.75
2023-02-26T20:35:22.265Z,98976.25
2023-02-26T20:40:24.148Z,98979.72
2023-02-26T20:45:27.426Z,98973.78
2023-02-26T20:50:29.475Z,98984.84
2023-02-26T20:55:31.859Z,98984.00
2023-02-26T21:00:33.740Z,98988.31
2023-02-26T21:05:36.147Z,98985.75
2023-02-26T21:10:38.674Z,98992.50
2023-02-26T21:15:40.594Z,98995.91
2023-02-26T21:20:42.384Z,99006.13
2023-02-26T21:25:44.534Z,99006.13
2023-02-26T21:30:46.429Z,99013.88
2023-02-26T21:35:52.664Z,99019.16
2023-02-26T21:40:54.798Z,99025.09
2023-02-26T21:45:56.682Z,99032.03
2023-02-26T21:51:00.035Z,99035.50
2023-02-26T21:56:02.204Z,99025.69
2023-02-26T22:01:04.867Z,99024.47
2023-02-26T22:06:06.939Z,99024.91
2023-02-26T22:11:08.976Z,99023.69
2023-02-26T22:16:10.793Z,99022.44
2023-02-26T22:21:12.700Z,99035.56
2023-02-26T22:26:14.524Z,99036.72
2023-02-26T22:31:16.652Z,99034.47
2023-02-26T22:36:18.510Z,99043.28
2023-02-26T22:41:20.450Z,99047.00
2023-02-26T22:46:24.596Z,99048.88
2023-02-26T22:51:28.453Z,99050.84
2023-02-26T22:56:31.048Z,99050.19
2023-02-26T23:01:32.857Z,99058.00
2023-02-26T23:06:36.650Z,99062.53
2023-02-26T23:11:38.501Z,99052.47
2023-02-26T23:16:40.931Z,99058.72
2023-02-26T23:21:42.820Z,99054.75
2023-02-26T23:26:44.914Z,99059.34
2023-02-26T23:31:46.848Z,99055.47
2023-02-26T23:36:49.139Z,99059.06
2023-02-26T23:41:50.951Z,99075.44
2023-02-26T23:46:52.980Z,99071.59
2023-02-26T23:51:54.811Z,99075.09
2023-02-26T23:56:56.722Z,99077.66
